sensor_id;sensor_type;location;lat;lon;timestamp;temperature;humidity
65472;DHT22;52068;50.710;14.492;2023-07-20T00:00:48;25.62;46.98
65472;DHT22;52068;50.710;14.492;2023-07-20T00:03:19;25.61;46.91
65472;DHT22;52068;50.710;14.492;2023-07-20T00:05:48;25.61;46.89
65472;DHT22;52068;50.710;14.492;2023-07-20T00:08:14;25.58;46.90
65472;DHT22;52068;50.710;14.492;2023-07-20T00:10:41;25.56;46.85
65472;DHT22;52068;50.710;14.492;2023-07-20T00:13:06;25.56;46.87
65472;DHT22;52068;50.710;14.492;2023-07-20T00:15:32;25.56;46.93
65472;DHT22;52068;50.710;14.492;2023-07-20T00:17:57;25.55;46.99
65472;DHT22;52068;50.710;14.492;2023-07-20T00:20:24;25.49;46.98
65472;DHT22;52068;50.710;14.492;2023-07-20T00:22:50;25.45;47.07
65472;DHT22;52068;50.710;14.492;2023-07-20T00:25:16;25.41;47.18
65472;DHT22;52068;50.710;14.492;2023-07-20T00:27:42;25.34;47.25
65472;DHT22;52068;50.710;14.492;2023-07-20T00:30:07;25.29;47.29
65472;DHT22;52068;50.710;14.492;2023-07-20T00:32:33;25.31;47.27
65472;DHT22;52068;50.710;14.492;2023-07-20T00:34:58;25.32;47.26
65472;DHT22;52068;50.710;14.492;2023-07-20T00:37:24;25.32;47.20
65472;DHT22;52068;50.710;14.492;2023-07-20T00:39:49;25.34;47.14
65472;DHT22;52068;50.710;14.492;2023-07-20T00:42:14;25.38;47.13
65472;DHT22;52068;50.710;14.492;2023-07-20T00:44:40;25.42;47.05
65472;DHT22;52068;50.710;14.492;2023-07-20T00:47:05;25.42;47.02
65472;DHT22;52068;50.710;14.492;2023-07-20T00:49:31;25.47;46.95
65472;DHT22;52068;50.710;14.492;2023-07-20T00:51:57;25.49;46.90
65472;DHT22;52068;50.710;14.492;2023-07-20T00:57:34;25.52;46.88
65472;DHT22;52068;50.710;14.492;2023-07-20T01:00:00;25.52;46.95
65472;DHT22;52068;50.710;14.492;2023-07-20T01:02:25;25.47;46.85
65472;DHT22;52068;50.710;14.492;2023-07-20T01:04:51;25.46;46.96
65472;DHT22;52068;50.710;14.492;2023-07-20T01:07:37;25.46;47.07
65472;DHT22;52068;50.710;14.492;2023-07-20T01:12:49;25.41;47.09
65472;DHT22;52068;50.710;14.492;2023-07-20T01:15:16;25.43;47.10
65472;DHT22;52068;50.710;14.492;2023-07-20T01:17:41;25.41;47.24
65472;DHT22;52068;50.710;14.492;2023-07-20T01:20:08;25.41;47.14
65472;DHT22;52068;50.710;14.492;2023-07-20T01:25:25;25.39;47.09
65472;DHT22;52068;50.710;14.492;2023-07-20T01:33:32;25.42;47.15
65472;DHT22;52068;50.710;14.492;2023-07-20T01:35:59;25.43;46.98
65472;DHT22;52068;50.710;14.492;2023-07-20T01:38:25;25.45;47.06
65472;DHT22;52068;50.710;14.492;2023-07-20T01:40:51;25.49;47.03
65472;DHT22;52068;50.710;14.492;2023-07-20T01:43:17;25.49;46.96
65472;DHT22;52068;50.710;14.492;2023-07-20T01:45:43;25.52;46.94
65472;DHT22;52068;50.710;14.492;2023-07-20T01:48:09;25.52;47.11
65472;DHT22;52068;50.710;14.492;2023-07-20T01:50:34;25.50;47.30
65472;DHT22;52068;50.710;14.492;2023-07-20T01:53:00;25.49;47.55
65472;DHT22;52068;50.710;14.492;2023-07-20T01:55:26;25.46;47.58
65472;DHT22;52068;50.710;14.492;2023-07-20T01:57:51;25.41;47.77
65472;DHT22;52068;50.710;14.492;2023-07-20T02:00:17;25.35;47.92
65472;DHT22;52068;50.710;14.492;2023-07-20T02:02:44;25.31;47.91
65472;DHT22;52068;50.710;14.492;2023-07-20T02:05:09;25.28;48.04
65472;DHT22;52068;50.710;14.492;2023-07-20T02:07:35;25.24;48.11
65472;DHT22;52068;50.710;14.492;2023-07-20T02:10:00;25.24;47.99
65472;DHT22;52068;50.710;14.492;2023-07-20T02:12:25;25.21;48.05
65472;DHT22;52068;50.710;14.492;2023-07-20T02:14:51;25.18;48.02
65472;DHT22;52068;50.710;14.492;2023-07-20T02:17:17;25.19;47.92
65472;DHT22;52068;50.710;14.492;2023-07-20T02:19:42;25.19;47.92
65472;DHT22;52068;50.710;14.492;2023-07-20T02:22:07;25.24;47.81
65472;DHT22;52068;50.710;14.492;2023-07-20T02:24:33;25.29;47.86
65472;DHT22;52068;50.710;14.492;2023-07-20T02:26:59;25.28;47.96
65472;DHT22;52068;50.710;14.492;2023-07-20T02:29:24;25.26;47.97
65472;DHT22;52068;50.710;14.492;2023-07-20T02:31:49;25.19;48.05
65472;DHT22;52068;50.710;14.492;2023-07-20T02:34:15;25.16;48.22
65472;DHT22;52068;50.710;14.492;2023-07-20T02:36:41;25.12;48.41
65472;DHT22;52068;50.710;14.492;2023-07-20T02:39:08;25.10;48.51
65472;DHT22;52068;50.710;14.492;2023-07-20T02:41:33;25.04;48.49
65472;DHT22;52068;50.710;14.492;2023-07-20T02:43:59;25.04;48.52
65472;DHT22;52068;50.710;14.492;2023-07-20T02:46:24;25.01;48.61
65472;DHT22;52068;50.710;14.492;2023-07-20T02:48:49;25.01;48.66
65472;DHT22;52068;50.710;14.492;2023-07-20T02:51:15;24.96;48.73
65472;DHT22;52068;50.710;14.492;2023-07-20T02:53:40;24.92;48.84
65472;DHT22;52068;50.710;14.492;2023-07-20T02:56:06;24.90;48.90
65472;DHT22;52068;50.710;14.492;2023-07-20T02:58:34;24.90;48.81
65472;DHT22;52068;50.710;14.492;2023-07-20T03:01:02;24.84;49.08
65472;DHT22;52068;50.710;14.492;2023-07-20T03:03:27;24.83;48.96
65472;DHT22;52068;50.710;14.492;2023-07-20T03:05:53;24.81;48.98
65472;DHT22;52068;50.710;14.492;2023-07-20T03:08:20;24.80;48.85
65472;DHT22;52068;50.710;14.492;2023-07-20T03:10:45;24.81;48.91
65472;DHT22;52068;50.710;14.492;2023-07-20T03:13:10;24.81;48.84
65472;DHT22;52068;50.710;14.492;2023-07-20T03:15:36;24.81;48.88
65472;DHT22;52068;50.710;14.492;2023-07-20T03:18:01;24.85;48.96
65472;DHT22;52068;50.710;14.492;2023-07-20T03:20:28;24.83;48.95
65472;DHT22;52068;50.710;14.492;2023-07-20T03:22:53;24.84;48.82
65472;DHT22;52068;50.710;14.492;2023-07-20T03:25:19;24.84;48.82
65472;DHT22;52068;50.710;14.492;2023-07-20T03:27:44;24.90;48.75
65472;DHT22;52068;50.710;14.492;2023-07-20T03:30:10;24.91;48.71
65472;DHT22;52068;50.710;14.492;2023-07-20T03:32:36;24.96;48.61
65472;DHT22;52068;50.710;14.492;2023-07-20T03:35:02;24.98;48.55
65472;DHT22;52068;50.710;14.492;2023-07-20T03:37:27;25.01;48.54
65472;DHT22;52068;50.710;14.492;2023-07-20T03:39:53;25.04;48.53
65472;DHT22;52068;50.710;14.492;2023-07-20T03:42:18;25.03;48.60
65472;DHT22;52068;50.710;14.492;2023-07-20T03:44:43;25.01;48.52
65472;DHT22;52068;50.710;14.492;2023-07-20T03:47:09;25.03;48.56
65472;DHT22;52068;50.710;14.492;2023-07-20T03:49:34;25.01;48.54
65472;DHT22;52068;50.710;14.492;2023-07-20T03:52:00;25.03;48.56
65472;DHT22;52068;50.710;14.492;2023-07-20T03:54:28;25.03;48.48
65472;DHT22;52068;50.710;14.492;2023-07-20T03:56:54;25.05;48.41
65472;DHT22;52068;50.710;14.492;2023-07-20T03:59:20;25.03;48.44
65472;DHT22;52068;50.710;14.492;2023-07-20T04:01:45;25.04;48.48
65472;DHT22;52068;50.710;14.492;2023-07-20T04:04:10;25.05;48.38
65472;DHT22;52068;50.710;14.492;2023-07-20T04:06:36;25.03;48.29
65472;DHT22;52068;50.710;14.492;2023-07-20T04:09:03;25.01;48.19
65472;DHT22;52068;50.710;14.492;2023-07-20T04:11:30;24.98;48.35
65472;DHT22;52068;50.710;14.492;2023-07-20T04:13:55;24.98;48.23
65472;DHT22;52068;50.710;14.492;2023-07-20T04:16:21;25.01;48.35
65472;DHT22;52068;50.710;14.492;2023-07-20T04:18:47;24.98;48.32
65472;DHT22;52068;50.710;14.492;2023-07-20T04:21:13;24.94;48.34
65472;DHT22;52068;50.710;14.492;2023-07-20T04:23:38;24.92;48.35
65472;DHT22;52068;50.710;14.492;2023-07-20T04:26:04;24.88;48.40
65472;DHT22;52068;50.710;14.492;2023-07-20T04:28:29;24.90;48.49
65472;DHT22;52068;50.710;14.492;2023-07-20T04:31:09;24.91;48.54
65472;DHT22;52068;50.710;14.492;2023-07-20T04:33:34;24.92;48.46
65472;DHT22;52068;50.710;14.492;2023-07-20T04:36:00;24.95;48.38
65472;DHT22;52068;50.710;14.492;2023-07-20T04:38:25;24.99;48.34
65472;DHT22;52068;50.710;14.492;2023-07-20T04:40:51;25.05;48.20
65472;DHT22;52068;50.710;14.492;2023-07-20T04:43:17;25.11;48.11
65472;DHT22;52068;50.710;14.492;2023-07-20T04:45:42;25.12;47.96
65472;DHT22;52068;50.710;14.492;2023-07-20T04:48:13;25.19;47.92
65472;DHT22;52068;50.710;14.492;2023-07-20T04:50:44;25.26;47.84
65472;DHT22;52068;50.710;14.492;2023-07-20T04:53:10;25.32;47.77
65472;DHT22;52068;50.710;14.492;2023-07-20T04:55:39;25.36;47.75
65472;DHT22;52068;50.710;14.492;2023-07-20T04:58:05;25.38;47.64
65472;DHT22;52068;50.710;14.492;2023-07-20T05:00:32;25.43;47.60
65472;DHT22;52068;50.710;14.492;2023-07-20T05:02:58;25.47;47.52
65472;DHT22;52068;50.710;14.492;2023-07-20T05:05:23;25.53;47.45
65472;DHT22;52068;50.710;14.492;2023-07-20T05:07:49;25.53;47.34
65472;DHT22;52068;50.710;14.492;2023-07-20T05:10:14;25.58;47.27
65472;DHT22;52068;50.710;14.492;2023-07-20T05:12:40;25.58;47.31
65472;DHT22;52068;50.710;14.492;2023-07-20T05:15:05;25.59;47.31
65472;DHT22;52068;50.710;14.492;2023-07-20T05:17:31;25.63;47.28
65472;DHT22;52068;50.710;14.492;2023-07-20T05:19:56;25.63;47.21
65472;DHT22;52068;50.710;14.492;2023-07-20T05:22:21;25.65;47.23
65472;DHT22;52068;50.710;14.492;2023-07-20T05:24:47;25.66;47.39
65472;DHT22;52068;50.710;14.492;2023-07-20T05:27:12;25.69;47.15
65472;DHT22;52068;50.710;14.492;2023-07-20T05:29:37;25.67;47.32
65472;DHT22;52068;50.710;14.492;2023-07-20T05:32:03;25.67;47.15
65472;DHT22;52068;50.710;14.492;2023-07-20T05:34:29;25.63;47.41
65472;DHT22;52068;50.710;14.492;2023-07-20T05:36:55;25.65;47.67
65472;DHT22;52068;50.710;14.492;2023-07-20T05:39:20;25.63;47.68
65472;DHT22;52068;50.710;14.492;2023-07-20T05:41:46;25.59;47.51
65472;DHT22;52068;50.710;14.492;2023-07-20T05:44:11;25.49;47.30
65472;DHT22;52068;50.710;14.492;2023-07-20T05:46:36;25.39;47.53
65472;DHT22;52068;50.710;14.492;2023-07-20T05:49:02;25.31;47.53
65472;DHT22;52068;50.710;14.492;2023-07-20T05:51:27;25.24;47.88
65472;DHT22;52068;50.710;14.492;2023-07-20T05:53:53;25.18;47.76
65472;DHT22;52068;50.710;14.492;2023-07-20T05:56:18;25.08;48.01
65472;DHT22;52068;50.710;14.492;2023-07-20T05:58:44;25.08;48.10
65472;DHT22;52068;50.710;14.492;2023-07-20T06:01:09;25.14;48.19
65472;DHT22;52068;50.710;14.492;2023-07-20T06:03:34;25.15;48.05
65472;DHT22;52068;50.710;14.492;2023-07-20T06:06:00;25.12;47.74
65472;DHT22;52068;50.710;14.492;2023-07-20T06:08:28;25.15;47.81
65472;DHT22;52068;50.710;14.492;2023-07-20T06:10:53;25.10;47.80
65472;DHT22;52068;50.710;14.492;2023-07-20T06:13:19;25.10;47.47
65472;DHT22;52068;50.710;14.492;2023-07-20T06:15:44;25.04;47.61
65472;DHT22;52068;50.710;14.492;2023-07-20T06:18:09;25.04;48.01
65472;DHT22;52068;50.710;14.492;2023-07-20T06:20:35;25.07;48.27
65472;DHT22;52068;50.710;14.492;2023-07-20T06:23:00;25.12;48.20
65472;DHT22;52068;50.710;14.492;2023-07-20T06:25:26;25.19;48.13
65472;DHT22;52068;50.710;14.492;2023-07-20T06:27:51;25.28;48.04
65472;DHT22;52068;50.710;14.492;2023-07-20T06:30:17;25.34;47.98
65472;DHT22;52068;50.710;14.492;2023-07-20T06:32:43;25.41;47.82
65472;DHT22;52068;50.710;14.492;2023-07-20T06:35:08;25.46;47.64
65472;DHT22;52068;50.710;14.492;2023-07-20T06:37:34;25.55;47.56
65472;DHT22;52068;50.710;14.492;2023-07-20T06:40:01;25.59;47.56
65472;DHT22;52068;50.710;14.492;2023-07-20T06:42:26;25.62;47.39
65472;DHT22;52068;50.710;14.492;2023-07-20T06:44:52;25.67;47.33
65472;DHT22;52068;50.710;14.492;2023-07-20T06:47:17;25.70;47.29
65472;DHT22;52068;50.710;14.492;2023-07-20T06:49:42;25.73;47.15
65472;DHT22;52068;50.710;14.492;2023-07-20T06:52:08;25.77;47.12
65472;DHT22;52068;50.710;14.492;2023-07-20T06:54:33;25.82;47.13
65472;DHT22;52068;50.710;14.492;2023-07-20T06:56:58;25.79;46.81
65472;DHT22;52068;50.710;14.492;2023-07-20T06:59:25;25.66;46.93
65472;DHT22;52068;50.710;14.492;2023-07-20T07:01:50;25.50;47.73
65472;DHT22;52068;50.710;14.492;2023-07-20T07:04:15;25.45;47.51
65472;DHT22;52068;50.710;14.492;2023-07-20T07:06:41;25.42;47.45
65472;DHT22;52068;50.710;14.492;2023-07-20T07:09:06;25.42;47.88
65472;DHT22;52068;50.710;14.492;2023-07-20T07:11:33;25.46;47.88
65472;DHT22;52068;50.710;14.492;2023-07-20T07:13:59;25.47;47.83
65472;DHT22;52068;50.710;14.492;2023-07-20T07:16:24;25.49;47.67
65472;DHT22;52068;50.710;14.492;2023-07-20T07:18:50;25.49;47.57
65472;DHT22;52068;50.710;14.492;2023-07-20T07:21:16;25.46;47.59
65472;DHT22;52068;50.710;14.492;2023-07-20T07:23:42;25.43;47.35
65472;DHT22;52068;50.710;14.492;2023-07-20T07:26:08;25.49;47.25
65472;DHT22;52068;50.710;14.492;2023-07-20T07:28:34;25.49;47.12
65472;DHT22;52068;50.710;14.492;2023-07-20T07:30:59;25.47;47.27
65472;DHT22;52068;50.710;14.492;2023-07-20T07:33:25;25.52;47.39
65472;DHT22;52068;50.710;14.492;2023-07-20T07:35:51;25.55;47.45
65472;DHT22;52068;50.710;14.492;2023-07-20T07:38:19;25.49;45.64
65472;DHT22;52068;50.710;14.492;2023-07-20T07:40:45;25.42;47.36
65472;DHT22;52068;50.710;14.492;2023-07-20T07:43:11;25.42;47.78
65472;DHT22;52068;50.710;14.492;2023-07-20T07:45:38;25.39;48.01
65472;DHT22;52068;50.710;14.492;2023-07-20T07:48:05;25.41;47.57
65472;DHT22;52068;50.710;14.492;2023-07-20T07:50:31;25.32;46.70
65472;DHT22;52068;50.710;14.492;2023-07-20T07:52:56;25.28;47.59
65472;DHT22;52068;50.710;14.492;2023-07-20T07:55:21;25.26;47.44
65472;DHT22;52068;50.710;14.492;2023-07-20T07:57:47;25.21;46.91
65472;DHT22;52068;50.710;14.492;2023-07-20T08:00:13;25.15;46.58
65472;DHT22;52068;50.710;14.492;2023-07-20T08:02:41;25.07;47.23
65472;DHT22;52068;50.710;14.492;2023-07-20T08:05:07;24.98;47.85
65472;DHT22;52068;50.710;14.492;2023-07-20T08:07:33;24.91;48.14
65472;DHT22;52068;50.710;14.492;2023-07-20T08:09:58;24.81;49.03
65472;DHT22;52068;50.710;14.492;2023-07-20T08:12:25;24.74;49.05
65472;DHT22;52068;50.710;14.492;2023-07-20T08:14:51;24.68;48.48
65472;DHT22;52068;50.710;14.492;2023-07-20T08:17:16;24.65;48.35
65472;DHT22;52068;50.710;14.492;2023-07-20T08:19:43;24.61;47.71
65472;DHT22;52068;50.710;14.492;2023-07-20T08:22:09;24.68;47.57
65472;DHT22;52068;50.710;14.492;2023-07-20T08:24:38;24.64;47.29
65472;DHT22;52068;50.710;14.492;2023-07-20T08:27:04;24.63;47.59
65472;DHT22;52068;50.710;14.492;2023-07-20T08:29:29;24.63;47.70
65472;DHT22;52068;50.710;14.492;2023-07-20T08:31:55;24.64;47.26
65472;DHT22;52068;50.710;14.492;2023-07-20T08:34:20;24.63;47.11
65472;DHT22;52068;50.710;14.492;2023-07-20T08:36:46;24.60;47.34
65472;DHT22;52068;50.710;14.492;2023-07-20T08:39:11;24.57;47.29
65472;DHT22;52068;50.710;14.492;2023-07-20T08:41:36;24.57;47.51
65472;DHT22;52068;50.710;14.492;2023-07-20T08:44:02;24.53;48.37
65472;DHT22;52068;50.710;14.492;2023-07-20T08:46:28;24.50;48.58
65472;DHT22;52068;50.710;14.492;2023-07-20T08:48:55;24.49;49.04
65472;DHT22;52068;50.710;14.492;2023-07-20T08:51:21;24.52;48.97
65472;DHT22;52068;50.710;14.492;2023-07-20T08:53:47;24.52;49.16
65472;DHT22;52068;50.710;14.492;2023-07-20T08:56:16;24.52;49.24
65472;DHT22;52068;50.710;14.492;2023-07-20T08:58:43;24.52;49.62
65472;DHT22;52068;50.710;14.492;2023-07-20T09:01:10;24.50;49.50
65472;DHT22;52068;50.710;14.492;2023-07-20T09:03:35;24.53;49.82
65472;DHT22;52068;50.710;14.492;2023-07-20T09:06:04;24.54;49.91
65472;DHT22;52068;50.710;14.492;2023-07-20T09:08:30;24.54;49.94
65472;DHT22;52068;50.710;14.492;2023-07-20T09:10:55;24.59;50.11
65472;DHT22;52068;50.710;14.492;2023-07-20T09:13:21;24.61;49.98
65472;DHT22;52068;50.710;14.492;2023-07-20T09:15:47;24.65;49.83
65472;DHT22;52068;50.710;14.492;2023-07-20T09:18:32;24.67;49.71
65472;DHT22;52068;50.710;14.492;2023-07-20T09:21:02;24.74;50.20
65472;DHT22;52068;50.710;14.492;2023-07-20T09:23:35;24.73;50.29
65472;DHT22;52068;50.710;14.492;2023-07-20T09:26:04;24.73;50.61
65472;DHT22;52068;50.710;14.492;2023-07-20T09:28:41;24.63;50.75
65472;DHT22;52068;50.710;14.492;2023-07-20T09:31:18;24.49;50.64
65472;DHT22;52068;50.710;14.492;2023-07-20T09:33:45;24.44;50.79
65472;DHT22;52068;50.710;14.492;2023-07-20T09:36:10;24.44;50.86
65472;DHT22;52068;50.710;14.492;2023-07-20T09:38:42;24.44;50.71
65472;DHT22;52068;50.710;14.492;2023-07-20T09:41:12;24.50;50.61
65472;DHT22;52068;50.710;14.492;2023-07-20T09:43:38;24.50;50.93
65472;DHT22;52068;50.710;14.492;2023-07-20T09:46:04;24.47;50.60
65472;DHT22;52068;50.710;14.492;2023-07-20T09:48:30;24.46;50.59
65472;DHT22;52068;50.710;14.492;2023-07-20T09:50:55;24.40;51.14
65472;DHT22;52068;50.710;14.492;2023-07-20T09:53:22;24.43;50.79
65472;DHT22;52068;50.710;14.492;2023-07-20T09:55:49;24.47;51.16
65472;DHT22;52068;50.710;14.492;2023-07-20T09:58:16;24.36;50.37
65472;DHT22;52068;50.710;14.492;2023-07-20T10:00:42;24.32;51.61
65472;DHT22;52068;50.710;14.492;2023-07-20T10:03:14;24.33;51.13
65472;DHT22;52068;50.710;14.492;2023-07-20T10:05:44;24.29;50.00
65472;DHT22;52068;50.710;14.492;2023-07-20T10:08:12;24.27;51.01
65472;DHT22;52068;50.710;14.492;2023-07-20T10:10:41;24.30;51.04
65472;DHT22;52068;50.710;14.492;2023-07-20T10:13:11;24.37;50.49
65472;DHT22;52068;50.710;14.492;2023-07-20T10:15:50;24.46;50.42
65472;DHT22;52068;50.710;14.492;2023-07-20T10:21:19;24.50;50.33
65472;DHT22;52068;50.710;14.492;2023-07-20T10:23:45;24.56;49.93
65472;DHT22;52068;50.710;14.492;2023-07-20T10:26:11;24.63;49.78
65472;DHT22;52068;50.710;14.492;2023-07-20T10:28:38;24.67;49.68
65472;DHT22;52068;50.710;14.492;2023-07-20T10:31:03;24.73;48.89
65472;DHT22;52068;50.710;14.492;2023-07-20T10:33:29;24.68;48.90
65472;DHT22;52068;50.710;14.492;2023-07-20T10:35:57;24.67;48.61
65472;DHT22;52068;50.710;14.492;2023-07-20T10:38:59;24.70;48.11
65472;DHT22;52068;50.710;14.492;2023-07-20T10:44:05;24.73;48.51
65472;DHT22;52068;50.710;14.492;2023-07-20T10:49:06;24.80;47.96
65472;DHT22;52068;50.710;14.492;2023-07-20T10:51:43;24.77;48.19
65472;DHT22;52068;50.710;14.492;2023-07-20T10:54:33;24.80;48.34
65472;DHT22;52068;50.710;14.492;2023-07-20T10:57:30;24.74;48.38
65472;DHT22;52068;50.710;14.492;2023-07-20T11:00:13;24.75;48.13
65472;DHT22;52068;50.710;14.492;2023-07-20T11:02:42;24.73;47.54
65472;DHT22;52068;50.710;14.492;2023-07-20T11:05:07;24.57;48.09
65472;DHT22;52068;50.710;14.492;2023-07-20T11:07:53;24.54;48.43
65472;DHT22;52068;50.710;14.492;2023-07-20T11:10:18;24.59;48.73
65472;DHT22;52068;50.710;14.492;2023-07-20T11:16:01;24.60;48.95
65472;DHT22;52068;50.710;14.492;2023-07-20T11:18:27;24.63;48.80
65472;DHT22;52068;50.710;14.492;2023-07-20T11:20:53;24.65;48.58
65472;DHT22;52068;50.710;14.492;2023-07-20T11:23:22;24.75;48.84
65472;DHT22;52068;50.710;14.492;2023-07-20T11:25:48;24.78;48.54
65472;DHT22;52068;50.710;14.492;2023-07-20T11:28:14;24.85;48.72
65472;DHT22;52068;50.710;14.492;2023-07-20T11:30:41;24.92;48.59
65472;DHT22;52068;50.710;14.492;2023-07-20T11:33:08;24.98;48.88
65472;DHT22;52068;50.710;14.492;2023-07-20T11:35:44;25.07;48.17
65472;DHT22;52068;50.710;14.492;2023-07-20T11:38:12;25.11;48.13
65472;DHT22;52068;50.710;14.492;2023-07-20T11:40:42;25.16;47.98
65472;DHT22;52068;50.710;14.492;2023-07-20T11:43:08;25.18;47.74
65472;DHT22;52068;50.710;14.492;2023-07-20T11:45:35;25.24;47.78
65472;DHT22;52068;50.710;14.492;2023-07-20T11:48:00;25.26;47.19
65472;DHT22;52068;50.710;14.492;2023-07-20T11:50:26;25.31;47.32
65472;DHT22;52068;50.710;14.492;2023-07-20T11:52:51;25.32;46.74
65472;DHT22;52068;50.710;14.492;2023-07-20T11:55:17;25.31;46.71
65472;DHT22;52068;50.710;14.492;2023-07-20T11:58:09;25.31;46.37
65472;DHT22;52068;50.710;14.492;2023-07-20T12:00:37;25.28;46.64
65472;DHT22;52068;50.710;14.492;2023-07-20T12:03:05;25.28;47.05
65472;DHT22;52068;50.710;14.492;2023-07-20T12:05:36;25.26;46.39
65472;DHT22;52068;50.710;14.492;2023-07-20T12:08:01;25.25;46.47
65472;DHT22;52068;50.710;14.492;2023-07-20T12:10:28;25.29;46.55
65472;DHT22;52068;50.710;14.492;2023-07-20T12:12:54;25.29;46.35
65472;DHT22;52068;50.710;14.492;2023-07-20T12:15:26;25.34;46.58
65472;DHT22;52068;50.710;14.492;2023-07-20T12:18:01;25.36;46.39
65472;DHT22;52068;50.710;14.492;2023-07-20T12:23:03;25.41;46.58
65472;DHT22;52068;50.710;14.492;2023-07-20T12:25:45;25.42;46.06
65472;DHT22;52068;50.710;14.492;2023-07-20T12:28:15;25.45;46.22
65472;DHT22;52068;50.710;14.492;2023-07-20T12:30:42;25.47;45.64
65472;DHT22;52068;50.710;14.492;2023-07-20T12:33:07;25.52;45.71
65472;DHT22;52068;50.710;14.492;2023-07-20T12:35:33;25.58;45.42
65472;DHT22;52068;50.710;14.492;2023-07-20T12:38:00;25.63;45.74
65472;DHT22;52068;50.710;14.492;2023-07-20T12:40:25;25.67;45.67
65472;DHT22;52068;50.710;14.492;2023-07-20T12:42:51;25.77;45.69
65472;DHT22;52068;50.710;14.492;2023-07-20T12:45:16;25.79;45.46
65472;DHT22;52068;50.710;14.492;2023-07-20T12:47:41;25.84;45.34
65472;DHT22;52068;50.710;14.492;2023-07-20T12:50:09;25.89;45.22
65472;DHT22;52068;50.710;14.492;2023-07-20T12:52:39;25.90;45.13
65472;DHT22;52068;50.710;14.492;2023-07-20T12:55:08;25.94;44.18
65472;DHT22;52068;50.710;14.492;2023-07-20T12:57:34;25.92;43.64
65472;DHT22;52068;50.710;14.492;2023-07-20T13:00:01;25.92;43.17
65472;DHT22;52068;50.710;14.492;2023-07-20T13:02:26;26.00;44.96
65472;DHT22;52068;50.710;14.492;2023-07-20T13:04:52;26.07;46.39
65472;DHT22;52068;50.710;14.492;2023-07-20T13:07:29;26.06;46.72
65472;DHT22;52068;50.710;14.492;2023-07-20T13:09:56;26.04;47.28
65472;DHT22;52068;50.710;14.492;2023-07-20T13:12:21;26.00;47.58
65472;DHT22;52068;50.710;14.492;2023-07-20T13:14:46;25.96;47.84
65472;DHT22;52068;50.710;14.492;2023-07-20T13:17:12;25.87;48.07
65472;DHT22;52068;50.710;14.492;2023-07-20T13:19:37;25.87;48.15
65472;DHT22;52068;50.710;14.492;2023-07-20T13:22:02;25.83;48.16
65472;DHT22;52068;50.710;14.492;2023-07-20T13:24:28;25.79;48.26
65472;DHT22;52068;50.710;14.492;2023-07-20T13:26:53;25.77;48.24
65472;DHT22;52068;50.710;14.492;2023-07-20T13:29:19;25.77;48.22
65472;DHT22;52068;50.710;14.492;2023-07-20T13:31:44;25.75;48.32
65472;DHT22;52068;50.710;14.492;2023-07-20T13:34:09;25.75;48.31
65472;DHT22;52068;50.710;14.492;2023-07-20T13:36:35;25.69;48.44
65472;DHT22;52068;50.710;14.492;2023-07-20T13:39:00;25.63;48.58
65472;DHT22;52068;50.710;14.492;2023-07-20T13:41:26;25.62;48.59
65472;DHT22;52068;50.710;14.492;2023-07-20T13:43:51;25.55;48.66
65472;DHT22;52068;50.710;14.492;2023-07-20T13:46:16;25.56;48.70
65472;DHT22;52068;50.710;14.492;2023-07-20T13:48:42;25.50;48.59
65472;DHT22;52068;50.710;14.492;2023-07-20T13:51:07;25.45;48.59
65472;DHT22;52068;50.710;14.492;2023-07-20T13:53:32;25.43;48.69
65472;DHT22;52068;50.710;14.492;2023-07-20T13:55:58;25.39;48.71
65472;DHT22;52068;50.710;14.492;2023-07-20T13:58:25;25.39;48.69
65472;DHT22;52068;50.710;14.492;2023-07-20T14:00:50;25.36;47.43
65472;DHT22;52068;50.710;14.492;2023-07-20T14:03:15;25.35;46.23
65472;DHT22;52068;50.710;14.492;2023-07-20T14:05:41;25.25;45.11
65472;DHT22;52068;50.710;14.492;2023-07-20T14:08:08;25.21;43.40
65472;DHT22;52068;50.710;14.492;2023-07-20T14:10:34;25.05;43.34
65472;DHT22;52068;50.710;14.492;2023-07-20T14:12:59;25.01;43.29
65472;DHT22;52068;50.710;14.492;2023-07-20T14:15:25;24.90;43.56
65472;DHT22;52068;50.710;14.492;2023-07-20T14:17:50;24.88;43.91
65472;DHT22;52068;50.710;14.492;2023-07-20T14:20:15;24.91;44.18
65472;DHT22;52068;50.710;14.492;2023-07-20T14:22:41;24.91;44.82
65472;DHT22;52068;50.710;14.492;2023-07-20T14:25:07;24.92;44.83
65472;DHT22;52068;50.710;14.492;2023-07-20T14:27:32;24.88;44.30
65472;DHT22;52068;50.710;14.492;2023-07-20T14:29:58;24.87;44.79
65472;DHT22;52068;50.710;14.492;2023-07-20T14:32:23;24.85;44.43
65472;DHT22;52068;50.710;14.492;2023-07-20T14:34:49;24.83;44.82
65472;DHT22;52068;50.710;14.492;2023-07-20T14:37:15;24.80;45.06
65472;DHT22;52068;50.710;14.492;2023-07-20T14:39:40;24.75;45.24
65472;DHT22;52068;50.710;14.492;2023-07-20T14:42:06;24.74;45.25
65472;DHT22;52068;50.710;14.492;2023-07-20T14:44:33;24.70;45.40
65472;DHT22;52068;50.710;14.492;2023-07-20T14:46:58;24.64;45.44
65472;DHT22;52068;50.710;14.492;2023-07-20T14:49:25;24.56;45.77
65472;DHT22;52068;50.710;14.492;2023-07-20T14:51:51;24.53;46.00
65472;DHT22;52068;50.710;14.492;2023-07-20T14:54:18;24.53;46.14
65472;DHT22;52068;50.710;14.492;2023-07-20T14:56:50;24.52;46.28
65472;DHT22;52068;50.710;14.492;2023-07-20T14:59:17;24.56;46.39
65472;DHT22;52068;50.710;14.492;2023-07-20T15:01:43;24.52;46.55
65472;DHT22;52068;50.710;14.492;2023-07-20T15:04:10;24.56;46.59
65472;DHT22;52068;50.710;14.492;2023-07-20T15:06:36;24.60;46.83
65472;DHT22;52068;50.710;14.492;2023-07-20T15:09:01;24.59;46.56
65472;DHT22;52068;50.710;14.492;2023-07-20T15:11:26;24.59;46.42
65472;DHT22;52068;50.710;14.492;2023-07-20T15:13:52;24.60;46.69
65472;DHT22;52068;50.710;14.492;2023-07-20T15:16:17;24.59;46.60
65472;DHT22;52068;50.710;14.492;2023-07-20T15:18:43;24.57;46.51
65472;DHT22;52068;50.710;14.492;2023-07-20T15:21:08;24.57;46.82
65472;DHT22;52068;50.710;14.492;2023-07-20T15:23:33;24.59;47.06
65472;DHT22;52068;50.710;14.492;2023-07-20T15:25:59;24.59;47.22
65472;DHT22;52068;50.710;14.492;2023-07-20T15:28:24;24.61;47.05
65472;DHT22;52068;50.710;14.492;2023-07-20T15:30:49;24.64;46.99
65472;DHT22;52068;50.710;14.492;2023-07-20T15:33:16;24.64;47.06
65472;DHT22;52068;50.710;14.492;2023-07-20T15:35:42;24.68;47.22
65472;DHT22;52068;50.710;14.492;2023-07-20T15:38:07;24.70;47.09
65472;DHT22;52068;50.710;14.492;2023-07-20T15:40:33;24.73;47.11